createdAt,value
2023-01-19T00:00:37.188Z,-1.04
2023-01-19T00:03:38.893Z,-1.12
2023-01-19T00:06:40.587Z,-1.08
2023-01-19T00:09:43.826Z,-1.10
2023-01-19T00:12:45.597Z,-1.01
2023-01-19T00:15:47.336Z,-1.07
2023-01-19T00:18:51.039Z,-1.08
2023-01-19T00:21:52.911Z,-1.14
2023-01-19T00:24:55.866Z,-1.17
2023-01-19T00:27:58.096Z,-1.08
2023-01-19T00:31:00.978Z,-1.09
2023-01-19T00:34:03.187Z,-1.10
2023-01-19T00:37:05.352Z,-1.17
2023-01-19T00:40:10.555Z,-1.17
2023-01-19T00:43:12.336Z,-1.19
2023-01-19T00:46:14.042Z,-1.02
2023-01-19T00:49:15.716Z,-1.03
2023-01-19T00:52:17.369Z,-0.91
2023-01-19T00:55:20.443Z,-0.98
2023-01-19T00:58:22.650Z,-1.01
2023-01-19T01:01:44.747Z,-0.91
2023-01-19T01:04:46.182Z,-0.80
2023-01-19T01:07:49.504Z,-0.80
2023-01-19T01:10:52.871Z,-0.78
2023-01-19T01:13:54.791Z,-0.75
2023-01-19T01:16:56.914Z,-0.66
2023-01-19T01:19:59.618Z,-0.52
2023-01-19T01:23:01.809Z,-0.47
2023-01-19T01:26:05.971Z,-0.38
2023-01-19T01:29:08.358Z,-0.32
2023-01-19T01:32:10.440Z,-0.32
2023-01-19T01:35:14.194Z,-0.38
2023-01-19T01:38:16.632Z,-0.45
2023-01-19T01:41:21.139Z,-0.44
2023-01-19T01:44:50.037Z,-0.36
2023-01-19T01:47:53.032Z,-0.30
2023-01-19T01:51:26.823Z,-0.29
2023-01-19T01:54:31.259Z,-0.27
2023-01-19T01:57:36.899Z,-0.26
2023-01-19T02:00:58.444Z,-0.32
2023-01-19T02:04:00.418Z,-0.31
2023-01-19T02:07:21.001Z,-0.35
2023-01-19T02:10:41.621Z,-0.43
2023-01-19T02:13:46.800Z,-0.51
2023-01-19T02:16:48.857Z,-0.55
2023-01-19T02:19:50.495Z,-0.44
2023-01-19T02:22:52.809Z,-0.36
2023-01-19T02:25:56.097Z,-0.46
2023-01-19T02:29:02.361Z,-0.51
2023-01-19T02:32:05.666Z,-0.45
2023-01-19T02:35:07.918Z,-0.35
2023-01-19T02:38:11.036Z,-0.33
2023-01-19T02:41:18.555Z,-0.26
2023-01-19T02:44:22.322Z,-0.24
2023-01-19T02:47:24.406Z,-0.30
2023-01-19T02:50:38.355Z,-0.21
2023-01-19T02:54:06.141Z,-0.23
2023-01-19T02:57:21.716Z,-0.18
2023-01-19T03:00:36.729Z,-0.21
2023-01-19T03:03:49.457Z,-0.17
2023-01-19T03:07:00.667Z,-0.13
2023-01-19T03:10:07.886Z,-0.08
2023-01-19T03:13:16.467Z,-0.06
2023-01-19T03:16:22.577Z,-0.09
2023-01-19T03:19:28.515Z,-0.05
2023-01-19T03:22:30.903Z,-0.01
2023-01-19T03:25:36.914Z,-0.03
2023-01-19T03:28:42.274Z,-0.08
2023-01-19T03:31:45.805Z,-0.04
2023-01-19T03:34:50.167Z,0.00
2023-01-19T03:37:56.024Z,-0.02
2023-01-19T03:41:01.786Z,-0.05
2023-01-19T03:44:06.205Z,-0.06
2023-01-19T03:47:11.488Z,-0.03
2023-01-19T03:50:20.611Z,-0.07
2023-01-19T03:53:25.529Z,-0.13
2023-01-19T03:56:27.281Z,-0.10
2023-01-19T03:59:30.489Z,-0.11
2023-01-19T04:02:32.142Z,-0.10
2023-01-19T04:05:34.248Z,-0.18
2023-01-19T04:08:36.210Z,-0.21
2023-01-19T04:11:38.089Z,-0.21
2023-01-19T04:14:41.157Z,-0.15
2023-01-19T04:17:42.823Z,-0.11
2023-01-19T04:20:44.566Z,-0.19
2023-01-19T04:23:46.246Z,-0.21
2023-01-19T04:26:47.904Z,-0.20
2023-01-19T04:29:51.221Z,-0.26
2023-01-19T04:32:53.645Z,-0.30
2023-01-19T04:35:56.139Z,-0.39
2023-01-19T04:38:57.797Z,-0.45
2023-01-19T04:42:00.747Z,-0.40
2023-01-19T04:45:04.525Z,-0.44
2023-01-19T04:48:07.363Z,-0.46
2023-01-19T04:51:09.055Z,-0.42
2023-01-19T04:54:10.837Z,-0.45
2023-01-19T04:57:12.621Z,-0.50
2023-01-19T05:00:18.707Z,-0.44
2023-01-19T05:03:20.626Z,-0.48
2023-01-19T05:06:22.804Z,-0.58
2023-01-19T05:09:24.442Z,-0.62
2023-01-19T05:12:26.649Z,-0.64
2023-01-19T05:15:29.765Z,-0.64
2023-01-19T05:18:36.637Z,-0.55
2023-01-19T05:21:38.651Z,-0.56
2023-01-19T05:24:40.303Z,-0.60
2023-01-19T05:27:42.025Z,-0.54
2023-01-19T05:30:45.171Z,-0.60
2023-01-19T05:33:48.158Z,-0.55
2023-01-19T05:36:49.981Z,-0.50
2023-01-19T05:39:52.755Z,-0.44
2023-01-19T05:42:54.503Z,-0.47
2023-01-19T05:45:57.438Z,-0.57
2023-01-19T05:49:01.879Z,-0.65
2023-01-19T05:52:03.805Z,-0.65
2023-01-19T05:55:06.569Z,-0.73
2023-01-19T05:58:08.310Z,-0.68
2023-01-19T06:01:11.996Z,-0.67
2023-01-19T06:04:13.697Z,-0.70
2023-01-19T06:07:15.769Z,-0.55
2023-01-19T06:10:17.635Z,-0.53
2023-01-19T06:13:19.376Z,-0.44
2023-01-19T06:16:22.419Z,-0.52
2023-01-19T06:19:24.397Z,-0.53
2023-01-19T06:22:26.118Z,-0.47
2023-01-19T06:25:27.851Z,-0.41
2023-01-19T06:28:29.846Z,-0.31
2023-01-19T06:31:32.977Z,-0.26
2023-01-19T06:34:34.818Z,-0.25
2023-01-19T06:37:37.069Z,-0.25
2023-01-19T06:40:39.108Z,-0.24
2023-01-19T06:43:40.776Z,-0.14
2023-01-19T06:46:43.923Z,-0.15
2023-01-19T06:49:45.585Z,-0.11
2023-01-19T06:52:49.734Z,-0.08
2023-01-19T06:55:51.387Z,-0.10
2023-01-19T06:58:54.076Z,-0.10
2023-01-19T07:01:57.305Z,-0.13
2023-01-19T07:04:59.352Z,-0.11
2023-01-19T07:08:01.194Z,-0.12
2023-01-19T07:11:25.005Z,-0.11
2023-01-19T07:14:33.512Z,-0.09
2023-01-19T07:17:36.615Z,-0.08
2023-01-19T07:20:38.531Z,-0.05
2023-01-19T07:23:40.309Z,-0.03
2023-01-19T07:26:42.245Z,-0.01
2023-01-19T07:29:43.930Z,0.02
2023-01-19T07:32:47.120Z,0.03
2023-01-19T07:35:50.095Z,0.04
2023-01-19T07:38:51.804Z,0.01
2023-01-19T07:41:53.568Z,0.05
2023-01-19T07:44:58.276Z,0.07
2023-01-19T07:48:01.699Z,0.07
2023-01-19T07:51:05.793Z,0.06
2023-01-19T07:54:08.388Z,0.05
2023-01-19T07:57:10.037Z,0.03
2023-01-19T08:00:14.459Z,0.10
2023-01-19T08:03:18.614Z,0.07
2023-01-19T08:06:22.344Z,0.11
2023-01-19T08:09:24.481Z,0.16
2023-01-19T08:12:26.228Z,0.10
2023-01-19T08:15:28.039Z,0.20
2023-01-19T08:18:31.132Z,0.23
2023-01-19T08:21:33.348Z,0.13
2023-01-19T08:24:35.031Z,0.07
2023-01-19T08:27:36.755Z,0.07
2023-01-19T08:30:38.865Z,0.18
2023-01-19T08:33:42.968Z,0.27
2023-01-19T08:36:44.811Z,0.37
2023-01-19T08:39:46.576Z,0.36
2023-01-19T08:42:48.428Z,0.46
2023-01-19T08:45:51.533Z,0.41
2023-01-19T08:48:54.901Z,0.37
2023-01-19T08:51:56.638Z,0.42
2023-01-19T08:54:58.349Z,0.41
2023-01-19T08:58:00.554Z,0.45
2023-01-19T09:01:03.883Z,0.51
2023-01-19T09:04:07.598Z,0.51
2023-01-19T09:07:09.532Z,0.63
2023-01-19T09:10:12.224Z,0.63
2023-01-19T09:13:15.312Z,0.66
2023-01-19T09:16:17.030Z,0.56
2023-01-19T09:19:20.091Z,0.60
2023-01-19T09:22:21.853Z,0.52
2023-01-19T09:25:23.768Z,0.55
2023-01-19T09:28:26.178Z,0.53
2023-01-19T09:31:28.041Z,0.46
2023-01-19T09:34:31.417Z,0.41
2023-01-19T09:37:33.333Z,0.35
2023-01-19T09:40:37.037Z,0.34
2023-01-19T09:43:41.448Z,0.45
2023-01-19T09:46:43.205Z,0.59
2023-01-19T09:49:52.472Z,0.63
2023-01-19T09:53:20.740Z,0.70
2023-01-19T09:56:23.378Z,0.87
2023-01-19T09:59:28.716Z,1.09
2023-01-19T10:02:37.046Z,1.11
2023-01-19T10:05:44.759Z,1.22
2023-01-19T10:08:55.564Z,1.32
2023-01-19T10:12:02.371Z,1.33
2023-01-19T10:15:18.068Z,1.48
2023-01-19T10:18:25.321Z,1.50
2023-01-19T10:21:33.687Z,1.51
2023-01-19T10:24:40.270Z,1.64
2023-01-19T10:27:42.836Z,1.65
2023-01-19T10:30:46.753Z,1.87
2023-01-19T10:33:49.415Z,1.93
2023-01-19T10:36:59.010Z,1.97
2023-01-19T10:40:15.812Z,1.78
2023-01-19T10:43:46.683Z,1.83
2023-01-19T10:46:49.908Z,1.68
2023-01-19T10:49:52.293Z,1.42
2023-01-19T10:52:57.394Z,1.45
2023-01-19T10:56:15.511Z,1.50
2023-01-19T10:59:31.832Z,1.51
2023-01-19T11:02:33.933Z,1.39
2023-01-19T11:05:35.918Z,1.44
2023-01-19T11:08:39.357Z,1.51
2023-01-19T11:11:46.975Z,1.48
2023-01-19T11:14:50.594Z,1.51
2023-01-19T11:17:53.682Z,1.61
2023-01-19T11:20:57.601Z,1.51
2023-01-19T11:24:05.275Z,1.56
2023-01-19T11:27:07.156Z,1.44
2023-01-19T11:30:19.547Z,1.57
2023-01-19T11:33:26.927Z,1.57
2023-01-19T11:36:30.352Z,1.55
2023-01-19T11:39:46.627Z,1.74
2023-01-19T11:42:48.776Z,1.82
2023-01-19T11:45:51.534Z,1.89
2023-01-19T11:49:01.052Z,1.96
2023-01-19T11:52:06.460Z,1.95
2023-01-19T11:55:17.587Z,1.86
2023-01-19T11:58:20.415Z,1.91
2023-01-19T12:01:24.783Z,1.87
2023-01-19T12:04:31.024Z,1.85
2023-01-19T12:07:35.306Z,1.86
2023-01-19T12:10:43.527Z,1.97
2023-01-19T12:13:46.458Z,1.91
2023-01-19T12:16:51.164Z,1.99
2023-01-19T12:20:00.850Z,1.95
2023-01-19T12:23:14.988Z,1.97
2023-01-19T12:26:27.871Z,1.95
2023-01-19T12:29:33.214Z,1.95
2023-01-19T12:32:36.733Z,1.80
2023-01-19T12:35:56.901Z,1.78
2023-01-19T12:39:02.694Z,1.81
2023-01-19T12:42:13.048Z,1.85
2023-01-19T12:45:17.576Z,1.96
2023-01-19T12:48:25.192Z,1.93
2023-01-19T12:51:27.061Z,1.97
2023-01-19T12:54:31.651Z,1.88
2023-01-19T12:57:39.104Z,1.82
2023-01-19T13:00:42.820Z,1.75
2023-01-19T13:03:58.240Z,1.67
2023-01-19T13:07:10.207Z,1.67
2023-01-19T13:10:49.535Z,1.75
2023-01-19T13:14:33.041Z,1.66
2023-01-19T13:17:47.142Z,1.59
2023-01-19T13:20:54.278Z,1.59
2023-01-19T13:23:58.291Z,1.65
2023-01-19T13:27:03.447Z,1.65
2023-01-19T13:30:12.060Z,1.54
2023-01-19T13:33:20.332Z,1.62
2023-01-19T13:36:27.581Z,1.65
2023-01-19T13:39:34.893Z,1.62
2023-01-19T13:42:40.078Z,1.67
2023-01-19T13:45:49.878Z,1.62
2023-01-19T13:48:56.839Z,1.55
2023-01-19T13:52:16.869Z,1.67
2023-01-19T13:55:20.535Z,1.67
2023-01-19T13:58:22.955Z,1.79
2023-01-19T14:01:28.700Z,1.80
2023-01-19T14:04:33.764Z,1.91
2023-01-19T14:07:35.624Z,1.85
2023-01-19T14:10:39.482Z,2.00
2023-01-19T14:13:44.742Z,2.05
2023-01-19T14:16:46.244Z,2.10
2023-01-19T14:19:51.097Z,2.17
2023-01-19T14:22:52.831Z,2.09
2023-01-19T14:25:54.729Z,2.12
2023-01-19T14:28:56.387Z,2.05
2023-01-19T14:32:13.725Z,2.02
2023-01-19T14:35:24.316Z,2.06
2023-01-19T14:38:25.958Z,2.09
2023-01-19T14:41:35.967Z,2.08
2023-01-19T14:44:39.700Z,2.10
2023-01-19T14:47:43.518Z,2.04
2023-01-19T14:51:02.485Z,1.98
2023-01-19T14:54:05.278Z,2.00
2023-01-19T14:57:12.603Z,2.00
2023-01-19T15:00:18.100Z,2.00
2023-01-19T15:03:19.937Z,1.92
2023-01-19T15:06:24.667Z,1.87
2023-01-19T15:09:26.803Z,1.84
2023-01-19T15:12:29.244Z,1.81
2023-01-19T15:15:35.589Z,1.81
2023-01-19T15:18:38.430Z,1.80
2023-01-19T15:21:42.227Z,1.79
2023-01-19T15:24:44.350Z,1.74
2023-01-19T15:27:47.371Z,1.76
2023-01-19T15:30:49.209Z,1.72
2023-01-19T15:33:51.265Z,1.68
2023-01-19T15:36:54.286Z,1.67
2023-01-19T15:39:55.913Z,1.61
2023-01-19T15:42:57.632Z,1.49
2023-01-19T15:46:01.808Z,1.46
2023-01-19T15:49:05.776Z,1.32
2023-01-19T15:52:08.904Z,1.25
2023-01-19T15:55:11.738Z,1.16
2023-01-19T15:58:14.089Z,1.05
2023-01-19T16:01:18.446Z,1.10
2023-01-19T16:04:20.237Z,1.04
2023-01-19T16:07:23.396Z,0.98
2023-01-19T16:10:25.599Z,0.92
2023-01-19T16:13:29.917Z,0.96
2023-01-19T16:16:31.979Z,0.93
2023-01-19T16:19:33.758Z,0.84
2023-01-19T16:22:37.122Z,0.85
2023-01-19T16:25:38.881Z,0.83
2023-01-19T16:28:42.237Z,0.75
2023-01-19T16:31:45.532Z,0.74
2023-01-19T16:34:47.284Z,0.69
2023-01-19T16:37:51.653Z,0.70
2023-01-19T16:40:53.312Z,0.58
2023-01-19T16:43:56.448Z,0.64
2023-01-19T16:46:58.135Z,0.69
2023-01-19T16:49:59.800Z,0.69
2023-01-19T16:53:02.807Z,0.64
2023-01-19T16:56:06.413Z,0.63
2023-01-19T16:59:11.419Z,0.68
2023-01-19T17:02:13.234Z,0.75
2023-01-19T17:05:15.046Z,0.76
2023-01-19T17:08:19.794Z,0.79
2023-01-19T17:11:23.168Z,0.80
2023-01-19T17:14:24.840Z,0.76
2023-01-19T17:17:26.598Z,0.79
2023-01-19T17:20:28.292Z,0.79
2023-01-19T17:23:31.729Z,0.81
2023-01-19T17:26:33.813Z,0.81
2023-01-19T17:29:35.601Z,0.80
2023-01-19T17:32:37.360Z,0.69
2023-01-19T17:35:39.377Z,0.68
2023-01-19T17:38:42.574Z,0.70
2023-01-19T17:41:44.392Z,0.66
2023-01-19T17:44:46.207Z,0.63
2023-01-19T17:47:49.059Z,0.61
2023-01-19T17:50:50.735Z,0.63
2023-01-19T17:53:55.112Z,0.70
2023-01-19T17:56:56.746Z,0.71
2023-01-19T17:59:58.331Z,0.71
2023-01-19T18:03:00.119Z,0.75
2023-01-19T18:06:02.264Z,0.78
2023-01-19T18:09:07.306Z,0.75
2023-01-19T18:12:09.090Z,0.74
2023-01-19T18:15:11.891Z,0.78
2023-01-19T18:18:13.933Z,0.72
2023-01-19T18:21:16.312Z,0.69
2023-01-19T18:24:19.440Z,0.72
2023-01-19T18:27:21.946Z,0.72
2023-01-19T18:30:23.932Z,0.72
2023-01-19T18:33:26.415Z,0.66
2023-01-19T18:36:28.733Z,0.67
2023-01-19T18:39:31.922Z,0.65
2023-01-19T18:42:34.052Z,0.63
2023-01-19T18:45:37.107Z,0.66
2023-01-19T18:48:39.348Z,0.60
2023-01-19T18:51:42.117Z,0.64
2023-01-19T18:54:45.095Z,0.61
2023-01-19T18:57:47.056Z,0.61
2023-01-19T19:00:49.770Z,0.60
2023-01-19T19:03:52.222Z,0.62
2023-01-19T19:06:53.966Z,0.55
2023-01-19T19:09:57.067Z,0.56
2023-01-19T19:12:58.941Z,0.52
2023-01-19T19:16:04.096Z,0.48
2023-01-19T19:19:06.090Z,0.49
2023-01-19T19:22:07.807Z,0.52
2023-01-19T19:25:11.087Z,0.51
2023-01-19T19:28:12.779Z,0.46
2023-01-19T19:31:18.009Z,0.49
2023-01-19T19:34:19.675Z,0.45
2023-01-19T19:37:21.321Z,0.40
2023-01-19T19:40:25.021Z,0.33
2023-01-19T19:43:26.969Z,0.29
2023-01-19T19:46:28.943Z,0.33
2023-01-19T19:49:30.607Z,0.29
2023-01-19T19:52:32.400Z,0.37
2023-01-19T19:55:35.490Z,0.31
2023-01-19T19:58:39.160Z,0.24
2023-01-19T20:01:43.614Z,0.23
2023-01-19T20:04:45.728Z,0.25
2023-01-19T20:07:48.254Z,0.27
2023-01-19T20:10:51.402Z,0.25
2023-01-19T20:13:53.977Z,0.24
2023-01-19T20:16:55.656Z,0.19
2023-01-19T20:19:59.114Z,0.21
2023-01-19T20:23:01.367Z,0.26
2023-01-19T20:26:07.126Z,0.31
2023-01-19T20:29:10.837Z,0.32
2023-01-19T20:32:12.716Z,0.33
2023-01-19T20:35:15.560Z,0.33
2023-01-19T20:38:17.368Z,0.30
2023-01-19T20:41:21.643Z,0.27
2023-01-19T20:44:25.980Z,0.35
2023-01-19T20:47:27.708Z,0.33
2023-01-19T20:50:29.490Z,0.19
2023-01-19T20:53:32.112Z,0.11
2023-01-19T20:56:35.192Z,0.02
2023-01-19T20:59:38.266Z,0.10
2023-01-19T21:02:39.944Z,0.12
2023-01-19T21:05:41.657Z,0.06
2023-01-19T21:08:43.922Z,0.04
2023-01-19T21:11:47.018Z,0.06
2023-01-19T21:14:48.721Z,0.11
2023-01-19T21:17:50.353Z,0.25
2023-01-19T21:20:52.096Z,0.24
2023-01-19T21:23:55.986Z,0.22
2023-01-19T21:26:59.349Z,0.15
2023-01-19T21:30:02.422Z,0.17
2023-01-19T21:33:05.064Z,0.23
2023-01-19T21:36:08.396Z,0.18
2023-01-19T21:39:10.235Z,0.20
2023-01-19T21:42:13.375Z,0.22
2023-01-19T21:45:15.317Z,0.22
2023-01-19T21:48:17.875Z,0.24
2023-01-19T21:51:19.516Z,0.27
2023-01-19T21:54:21.467Z,0.25
2023-01-19T21:57:24.752Z,0.29
2023-01-19T22:00:27.057Z,0.24
2023-01-19T22:03:29.395Z,0.23
2023-01-19T22:06:31.063Z,0.14
2023-01-19T22:09:33.657Z,0.23
2023-01-19T22:12:38.117Z,0.21
2023-01-19T22:15:39.949Z,0.20
2023-01-19T22:18:42.968Z,0.08
2023-01-19T22:21:44.643Z,0.15
2023-01-19T22:24:49.589Z,0.15
2023-01-19T22:27:52.592Z,0.09
2023-01-19T22:30:54.434Z,0.10
2023-01-19T22:33:57.021Z,0.06
2023-01-19T22:36:58.797Z,0.21
2023-01-19T22:40:00.544Z,0.22
2023-01-19T22:43:03.751Z,0.21
2023-01-19T22:46:08.532Z,0.23
2023-01-19T22:49:13.192Z,0.27
2023-01-19T22:52:14.890Z,0.21
2023-01-19T22:55:16.494Z,0.28
2023-01-19T22:58:21.428Z,0.41
2023-01-19T23:01:24.901Z,0.35
2023-01-19T23:04:26.558Z,0.31
2023-01-19T23:07:28.223Z,0.40
2023-01-19T23:10:30.891Z,0.33
2023-01-19T23:13:34.436Z,0.32
2023-01-19T23:16:36.507Z,0.44
2023-01-19T23:19:38.096Z,0.33
2023-01-19T23:22:40.130Z,0.35
2023-01-19T23:25:41.770Z,0.31
2023-01-19T23:28:45.987Z,0.21
2023-01-19T23:31:49.566Z,0.12
2023-01-19T23:34:51.211Z,0.17
2023-01-19T23:37:52.938Z,0.11
2023-01-19T23:40:56.975Z,0.10
2023-01-19T23:44:00.493Z,0.25
2023-01-19T23:47:02.169Z,0.14
2023-01-19T23:50:05.471Z,0.07
2023-01-19T23:53:07.220Z,0.08
2023-01-19T23:56:10.206Z,0.05
2023-01-19T23:59:15.651Z,0.04
